Time;durP1;ratioP1;P1;durP2;ratioP2;P2;SDS_P1;SDS_P2;PMS_P1;PMS_P2;Temp;Humidity;BMP_temperature;BMP_pressure;BME280_temperature;BME280_humidity;BME280_pressure;Samples;Min_cycle;Max_cycle;Signal;HPM_P1;HPM_P2
2024/01/27 00:01:35;;;;;;;;;;;3.50;99.90;;;;;;4918483;28;19957;-68
2024/01/27 00:04:01;;;;;;;;;;;3.60;99.90;;;;;;4954313;28;19930;-69
2024/01/27 00:06:27;;;;;;;;;;;3.60;99.90;;;;;;4922916;28;19932;-69
2024/01/27 00:08:53;;;;;;;;;;;3.50;99.90;;;;;;4944948;28;19936;-67
2024/01/27 00:11:19;;;;;;;;;;;3.60;99.90;;;;;;4924305;28;20268;-68
2024/01/27 00:13:45;;;;;;;;;;;3.50;99.90;;;;;;4971466;28;19930;-68
2024/01/27 00:16:11;;;;;;;;;;;3.60;99.90;;;;;;4936160;28;19925;-68
2024/01/27 00:18:38;;;;;;;;;;;3.50;99.90;;;;;;4971390;28;20246;-68
2024/01/27 00:21:04;;;;;;;;;;;3.60;99.90;;;;;;4933729;28;19940;-68
2024/01/27 00:23:30;;;;;;;;;;;3.60;99.90;;;;;;4971340;28;19930;-67
2024/01/27 00:25:56;;;;;;;;;;;3.60;99.90;;;;;;4932925;28;20216;-67
2024/01/27 00:28:22;;;;;;;;;;;3.60;99.90;;;;;;4958923;28;20456;-68
2024/01/27 00:30:48;;;;;;;;;;;3.60;99.90;;;;;;4914948;28;20560;-67
2024/01/27 00:33:14;;;;;;;;;;;3.60;99.90;;;;;;4973143;28;19936;-68
2024/01/27 00:35:40;;;;;;;;;;;3.60;99.90;;;;;;4929891;28;20303;-68
2024/01/27 00:38:06;;;;;;;;;;;3.70;99.90;;;;;;4960628;28;19937;-67
2024/01/27 00:40:32;;;;;;;;;;;3.60;99.90;;;;;;4934480;28;19929;-67
2024/01/27 00:42:58;;;;;;;;;;;3.60;99.90;;;;;;4956331;28;19925;-67
2024/01/27 00:45:27;;;;;;;;;;;3.60;99.90;;;;;;4959339;28;20026;-67
2024/01/27 00:47:53;;;;;;;;;;;3.60;99.90;;;;;;4934725;28;19933;-68
2024/01/27 00:50:19;;;;;;;;;;;3.60;99.90;;;;;;4940488;28;20517;-68
2024/01/27 00:52:44;;;;;;;;;;;3.70;99.90;;;;;;4934207;28;20932;-68
2024/01/27 00:55:10;;;;;;;;;;;3.70;99.90;;;;;;4941907;28;19929;-67
2024/01/27 00:57:38;;;;;;;;;;;3.60;99.90;;;;;;4932842;28;20062;-67
2024/01/27 01:00:08;;;;;;;;;;;3.60;99.90;;;;;;4939775;28;19937;-67
2024/01/27 01:02:34;;;;;;;;;;;3.60;99.90;;;;;;4919918;28;19932;-67
2024/01/27 01:05:00;;;;;;;;;;;3.70;99.90;;;;;;4940786;28;19936;-68
2024/01/27 01:07:26;;;;;;;;;;;3.60;99.90;;;;;;4932839;28;19944;-68
2024/01/27 01:09:52;;;;;;;;;;;3.60;99.90;;;;;;4924914;28;19933;-68
2024/01/27 01:12:18;;;;;;;;;;;3.60;99.90;;;;;;4937503;28;21079;-68
2024/01/27 01:14:44;;;;;;;;;;;3.50;99.90;;;;;;4958762;28;19925;-69
2024/01/27 01:17:10;;;;;;;;;;;3.50;99.90;;;;;;4941201;28;19924;-68
2024/01/27 01:19:37;;;;;;;;;;;3.50;99.90;;;;;;4963555;28;19929;-68
2024/01/27 01:22:02;;;;;;;;;;;3.50;99.90;;;;;;4922268;28;19929;-68
2024/01/27 01:24:29;;;;;;;;;;;3.50;99.90;;;;;;4945914;28;20008;-68
2024/01/27 01:26:55;;;;;;;;;;;3.40;99.90;;;;;;4932755;28;19925;-68
2024/01/27 01:29:22;;;;;;;;;;;3.40;99.90;;;;;;4965107;28;20550;-68
2024/01/27 01:31:48;;;;;;;;;;;3.40;99.90;;;;;;4934194;28;19925;-67
2024/01/27 01:34:14;;;;;;;;;;;3.40;99.90;;;;;;4940237;28;20724;-69
2024/01/27 01:36:40;;;;;;;;;;;3.40;99.90;;;;;;4920985;28;19940;-67
2024/01/27 01:39:06;;;;;;;;;;;3.40;99.90;;;;;;4965848;28;19933;-68
2024/01/27 01:41:32;;;;;;;;;;;3.40;99.90;;;;;;4920856;28;20902;-69
2024/01/27 01:43:59;;;;;;;;;;;3.40;99.90;;;;;;4945167;28;19926;-68
2024/01/27 01:46:25;;;;;;;;;;;3.40;99.90;;;;;;4928192;28;20023;-68
2024/01/27 01:48:51;;;;;;;;;;;3.40;99.90;;;;;;4973668;28;19930;-68
2024/01/27 01:51:16;;;;;;;;;;;3.40;99.90;;;;;;4932252;28;19925;-67
2024/01/27 01:53:43;;;;;;;;;;;3.30;99.90;;;;;;4956827;28;19929;-67
2024/01/27 01:56:09;;;;;;;;;;;3.30;99.90;;;;;;4921184;28;19940;-67
2024/01/27 01:58:35;;;;;;;;;;;3.40;99.90;;;;;;4947617;28;20425;-68
2024/01/27 02:01:01;;;;;;;;;;;3.40;99.90;;;;;;4919890;28;19934;-67
2024/01/27 02:03:27;;;;;;;;;;;3.40;99.90;;;;;;4961808;28;21182;-68
2024/01/27 02:05:53;;;;;;;;;;;3.40;99.90;;;;;;4935540;28;22063;-67
2024/01/27 02:08:19;;;;;;;;;;;3.40;99.90;;;;;;4976304;28;19954;-67
2024/01/27 02:10:45;;;;;;;;;;;3.40;99.90;;;;;;4932582;28;19929;-68
2024/01/27 02:13:18;;;;;;;;;;;3.40;99.90;;;;;;4977380;28;19945;-66
2024/01/27 02:15:44;;;;;;;;;;;3.40;99.90;;;;;;4933500;28;19932;-67
2024/01/27 02:18:10;;;;;;;;;;;3.40;99.90;;;;;;4976529;28;20190;-68
2024/01/27 02:20:37;;;;;;;;;;;3.40;99.90;;;;;;4936833;28;19944;-69
2024/01/27 02:23:04;;;;;;;;;;;3.40;99.90;;;;;;4977315;28;19925;-67
2024/01/27 02:25:30;;;;;;;;;;;3.40;99.90;;;;;;4963056;28;20927;-68
2024/01/27 02:27:56;;;;;;;;;;;3.40;99.90;;;;;;4936491;28;19925;-67
2024/01/27 02:30:22;;;;;;;;;;;3.40;99.90;;;;;;4943003;28;20660;-68
2024/01/27 02:32:48;;;;;;;;;;;3.40;99.90;;;;;;4932410;28;19925;-68
2024/01/27 02:35:14;;;;;;;;;;;3.40;99.90;;;;;;4956704;28;19932;-67
2024/01/27 02:37:40;;;;;;;;;;;3.40;99.90;;;;;;4946997;28;21070;-68
2024/01/27 02:40:07;;;;;;;;;;;3.40;99.90;;;;;;4962711;28;20473;-69
2024/01/27 02:42:33;;;;;;;;;;;3.40;99.90;;;;;;4936886;28;20004;-67
2024/01/27 02:44:59;;;;;;;;;;;3.40;99.90;;;;;;4942536;28;19926;-68
2024/01/27 02:47:25;;;;;;;;;;;3.40;99.90;;;;;;4931927;28;20000;-67
2024/01/27 02:49:50;;;;;;;;;;;3.40;99.90;;;;;;4946624;28;19929;-67
2024/01/27 02:52:16;;;;;;;;;;;3.30;99.90;;;;;;4903090;28;19926;-68
2024/01/27 02:54:42;;;;;;;;;;;3.30;99.90;;;;;;4943539;28;19925;-69
2024/01/27 02:57:08;;;;;;;;;;;3.20;99.90;;;;;;4930457;28;19925;-67
2024/01/27 02:59:34;;;;;;;;;;;3.20;99.90;;;;;;4947860;28;19929;-67
2024/01/27 03:02:00;;;;;;;;;;;3.20;99.90;;;;;;4928734;28;19925;-67
2024/01/27 03:04:26;;;;;;;;;;;3.10;99.90;;;;;;4942851;28;19925;-68
2024/01/27 03:06:52;;;;;;;;;;;3.10;99.90;;;;;;4908938;28;19930;-67
2024/01/27 03:09:18;;;;;;;;;;;3.10;99.90;;;;;;4936092;28;19932;-67
2024/01/27 03:11:44;;;;;;;;;;;3.20;99.90;;;;;;4931475;28;19955;-67
2024/01/27 03:14:10;;;;;;;;;;;3.10;99.90;;;;;;4967286;28;19945;-67
2024/01/27 03:16:36;;;;;;;;;;;3.00;99.90;;;;;;4934567;28;19932;-67
2024/01/27 03:19:02;;;;;;;;;;;3.00;99.90;;;;;;4943438;28;19930;-67
2024/01/27 03:21:29;;;;;;;;;;;3.00;99.90;;;;;;4925667;28;19940;-67
2024/01/27 03:23:55;;;;;;;;;;;3.00;99.90;;;;;;4969717;28;20442;-68
2024/01/27 03:26:21;;;;;;;;;;;3.00;99.90;;;;;;4931097;28;19932;-68
2024/01/27 03:28:47;;;;;;;;;;;3.00;99.90;;;;;;4970110;28;19925;-67
2024/01/27 03:31:13;;;;;;;;;;;3.00;99.90;;;;;;4933020;28;19952;-67
2024/01/27 03:33:39;;;;;;;;;;;2.90;99.90;;;;;;4897970;28;1754975;-67
2024/01/27 03:36:11;;;;;;;;;;;2.90;99.90;;;;;;4930179;28;20299;-67
2024/01/27 03:38:37;;;;;;;;;;;2.80;99.90;;;;;;4957580;28;19932;-68
2024/01/27 03:41:04;;;;;;;;;;;2.80;99.90;;;;;;4917821;28;19929;-67
2024/01/27 03:43:30;;;;;;;;;;;2.70;99.90;;;;;;4959638;28;19940;-67
2024/01/27 03:46:00;;;;;;;;;;;2.70;99.90;;;;;;4913177;28;19927;-67
2024/01/27 03:48:25;;;;;;;;;;;2.70;99.90;;;;;;4949958;28;20150;-67
2024/01/27 03:50:51;;;;;;;;;;;2.70;99.90;;;;;;4925920;28;20002;-67
2024/01/27 03:53:17;;;;;;;;;;;2.70;99.90;;;;;;4972093;28;19932;-68
2024/01/27 03:55:43;;;;;;;;;;;2.70;99.90;;;;;;4931415;28;20443;-68
2024/01/27 03:58:09;;;;;;;;;;;2.70;99.90;;;;;;4974291;28;19936;-68
2024/01/27 04:00:35;;;;;;;;;;;2.60;99.90;;;;;;4943188;28;20598;-67
2024/01/27 04:03:01;;;;;;;;;;;2.60;99.90;;;;;;4954032;28;20426;-68
2024/01/27 04:05:28;;;;;;;;;;;2.60;99.90;;;;;;4940923;28;19937;-67
2024/01/27 04:07:54;;;;;;;;;;;2.60;99.90;;;;;;4910711;28;21184;-67
2024/01/27 04:10:20;;;;;;;;;;;2.60;99.90;;;;;;4940436;28;19926;-68
2024/01/27 04:12:46;;;;;;;;;;;2.50;99.90;;;;;;4932559;28;19932;-67
2024/01/27 04:15:12;;;;;;;;;;;2.50;99.90;;;;;;4940832;28;20442;-67
2024/01/27 04:17:38;;;;;;;;;;;2.50;99.90;;;;;;4945858;28;19925;-68
2024/01/27 04:20:04;;;;;;;;;;;2.50;99.90;;;;;;4959345;28;19930;-67
2024/01/27 04:22:30;;;;;;;;;;;2.60;99.90;;;;;;4946358;28;19925;-67
2024/01/27 04:24:56;;;;;;;;;;;2.60;99.90;;;;;;4961132;28;20725;-68
2024/01/27 04:27:22;;;;;;;;;;;2.60;99.90;;;;;;4935031;28;19930;-66
2024/01/27 04:29:48;;;;;;;;;;;2.60;99.90;;;;;;4943403;28;19926;-67
2024/01/27 04:32:14;;;;;;;;;;;2.60;99.90;;;;;;4930113;28;19933;-67
2024/01/27 04:34:40;;;;;;;;;;;2.60;99.90;;;;;;4942414;28;19936;-67
2024/01/27 04:37:06;;;;;;;;;;;2.60;99.90;;;;;;4934281;28;20054;-67
2024/01/27 04:39:32;;;;;;;;;;;2.60;99.90;;;;;;4964888;28;19936;-67
2024/01/27 04:41:58;;;;;;;;;;;2.50;99.90;;;;;;4925713;28;19932;-68
2024/01/27 04:44:23;;;;;;;;;;;2.50;99.90;;;;;;4946163;28;19937;-67
2024/01/27 04:46:49;;;;;;;;;;;2.50;99.90;;;;;;4927279;28;19925;-67
2024/01/27 04:49:15;;;;;;;;;;;2.50;99.90;;;;;;4947430;28;20484;-67
2024/01/27 04:51:41;;;;;;;;;;;2.50;99.90;;;;;;4918964;28;19932;-67
2024/01/27 04:54:08;;;;;;;;;;;2.50;99.90;;;;;;4925675;28;19925;-66
2024/01/27 04:56:34;;;;;;;;;;;2.60;99.90;;;;;;4915629;28;19933;-67
2024/01/27 04:59:00;;;;;;;;;;;2.50;99.90;;;;;;4952315;28;19930;-67
2024/01/27 05:01:26;;;;;;;;;;;2.60;99.90;;;;;;4919774;28;20937;-67
2024/01/27 05:03:51;;;;;;;;;;;2.60;99.90;;;;;;4967436;28;19929;-68
2024/01/27 05:06:18;;;;;;;;;;;2.50;99.90;;;;;;4935210;28;21014;-68
2024/01/27 05:08:44;;;;;;;;;;;2.60;99.90;;;;;;4968362;28;19925;-66
2024/01/27 05:11:10;;;;;;;;;;;2.60;99.90;;;;;;4931720;28;19926;-67
2024/01/27 05:13:37;;;;;;;;;;;2.60;99.90;;;;;;4954007;28;20500;-69
2024/01/27 05:16:03;;;;;;;;;;;2.60;99.90;;;;;;4910566;28;19926;-69
2024/01/27 05:18:29;;;;;;;;;;;2.60;99.90;;;;;;4928590;28;19926;-68
2024/01/27 05:20:55;;;;;;;;;;;2.60;99.90;;;;;;4915247;28;19945;-69
2024/01/27 05:23:21;;;;;;;;;;;2.60;99.90;;;;;;4959247;28;20120;-69
2024/01/27 05:25:47;;;;;;;;;;;2.60;99.90;;;;;;4915774;28;19933;-67
2024/01/27 05:28:13;;;;;;;;;;;2.60;99.90;;;;;;4960042;28;19926;-68
2024/01/27 05:30:39;;;;;;;;;;;2.60;99.90;;;;;;4911029;28;20004;-68
2024/01/27 05:33:04;;;;;;;;;;;2.60;99.90;;;;;;4974362;28;19931;-67
2024/01/27 05:35:30;;;;;;;;;;;2.60;99.90;;;;;;4959459;28;19952;-68
2024/01/27 05:37:56;;;;;;;;;;;2.50;99.90;;;;;;4951351;28;19932;-69
2024/01/27 05:40:22;;;;;;;;;;;2.60;99.90;;;;;;4959773;28;19941;-69
2024/01/27 05:42:49;;;;;;;;;;;2.60;99.90;;;;;;4918253;28;19925;-67
2024/01/27 05:45:15;;;;;;;;;;;2.60;99.90;;;;;;4959833;28;19937;-68
2024/01/27 05:47:41;;;;;;;;;;;2.60;99.90;;;;;;4953263;28;19924;-68
2024/01/27 05:50:08;;;;;;;;;;;2.60;99.90;;;;;;4955963;28;19933;-68
2024/01/27 05:52:34;;;;;;;;;;;2.50;99.90;;;;;;4953047;28;19947;-68
2024/01/27 05:55:01;;;;;;;;;;;2.50;99.90;;;;;;4960507;28;19925;-69
2024/01/27 05:57:27;;;;;;;;;;;2.50;99.90;;;;;;4951622;28;19936;-67
2024/01/27 05:59:54;;;;;;;;;;;2.50;99.90;;;;;;4961798;28;19929;-68
2024/01/27 06:02:19;;;;;;;;;;;2.50;99.90;;;;;;4947999;28;20324;-68
2024/01/27 06:04:45;;;;;;;;;;;2.50;99.90;;;;;;4963137;28;19927;-68
2024/01/27 06:07:11;;;;;;;;;;;2.50;99.90;;;;;;4948376;28;19925;-68
2024/01/27 06:09:37;;;;;;;;;;;2.50;99.90;;;;;;4943818;28;19925;-68
2024/01/27 06:12:04;;;;;;;;;;;2.50;99.90;;;;;;4929340;28;19925;-69
2024/01/27 06:14:30;;;;;;;;;;;2.50;99.90;;;;;;4955927;28;19925;-68
2024/01/27 06:16:57;;;;;;;;;;;2.50;99.90;;;;;;4931064;28;19985;-68
2024/01/27 06:19:22;;;;;;;;;;;2.50;99.90;;;;;;4960728;28;20292;-68
2024/01/27 06:21:48;;;;;;;;;;;2.50;99.90;;;;;;4943454;28;20412;-67
2024/01/27 06:24:15;;;;;;;;;;;2.40;99.90;;;;;;4967165;28;19926;-67
2024/01/27 06:26:40;;;;;;;;;;;2.50;99.90;;;;;;4912253;28;19929;-67
2024/01/27 06:29:06;;;;;;;;;;;2.40;99.90;;;;;;4962726;28;19932;-68
2024/01/27 06:31:32;;;;;;;;;;;2.40;99.90;;;;;;4935583;28;19955;-67
2024/01/27 06:33:58;;;;;;;;;;;2.40;99.90;;;;;;4954537;28;19926;-67
2024/01/27 06:36:27;;;;;;;;;;;2.40;99.90;;;;;;4932182;28;20345;-67
2024/01/27 06:38:53;;;;;;;;;;;2.40;99.90;;;;;;4955114;28;19930;-67
2024/01/27 06:41:19;;;;;;;;;;;2.40;99.90;;;;;;4941458;28;19928;-67
2024/01/27 06:43:45;;;;;;;;;;;2.40;99.90;;;;;;4964066;28;19933;-68
2024/01/27 06:46:11;;;;;;;;;;;2.40;99.90;;;;;;4934052;28;20642;-67
2024/01/27 06:48:37;;;;;;;;;;;2.40;99.90;;;;;;4981236;28;19926;-67
2024/01/27 06:51:03;;;;;;;;;;;2.40;99.90;;;;;;4933807;28;20586;-68
2024/01/27 06:53:29;;;;;;;;;;;2.40;99.90;;;;;;4966272;28;19926;-68
2024/01/27 06:55:55;;;;;;;;;;;2.40;99.90;;;;;;4932449;28;19935;-67
2024/01/27 06:58:21;;;;;;;;;;;2.40;99.90;;;;;;4962298;28;20947;-67
2024/01/27 07:00:47;;;;;;;;;;;2.40;99.90;;;;;;4950227;28;19939;-67
2024/01/27 07:03:13;;;;;;;;;;;2.50;99.90;;;;;;4981695;28;20975;-66
2024/01/27 07:05:40;;;;;;;;;;;2.40;99.90;;;;;;4934566;28;19933;-67
2024/01/27 07:08:07;;;;;;;;;;;2.40;99.90;;;;;;4983595;28;19925;-68
2024/01/27 07:10:33;;;;;;;;;;;2.40;99.90;;;;;;4952408;28;20945;-67
2024/01/27 07:12:59;;;;;;;;;;;2.50;99.90;;;;;;4920842;28;19925;-67
2024/01/27 07:15:25;;;;;;;;;;;2.40;99.90;;;;;;4943069;28;19941;-67
2024/01/27 07:17:51;;;;;;;;;;;2.40;99.90;;;;;;4910000;28;19929;-67
2024/01/27 07:20:17;;;;;;;;;;;2.40;99.90;;;;;;4944222;28;19937;-67
2024/01/27 07:22:43;;;;;;;;;;;2.30;99.90;;;;;;4889599;28;19937;-66
2024/01/27 07:25:10;;;;;;;;;;;2.30;99.90;;;;;;4939998;28;19996;-67
2024/01/27 07:27:36;;;;;;;;;;;2.30;99.90;;;;;;4929801;28;19929;-66
2024/01/27 07:30:02;;;;;;;;;;;2.30;99.90;;;;;;4960775;28;19929;-67
2024/01/27 07:32:28;;;;;;;;;;;2.30;99.90;;;;;;4936224;28;19988;-67
2024/01/27 07:34:54;;;;;;;;;;;2.30;99.90;;;;;;4943947;28;20932;-68
2024/01/27 07:37:23;;;;;;;;;;;2.30;99.90;;;;;;4932047;28;20008;-68
2024/01/27 07:39:49;;;;;;;;;;;2.20;99.90;;;;;;4939419;28;20439;-67
2024/01/27 07:42:15;;;;;;;;;;;2.20;99.90;;;;;;4910775;28;20016;-68
2024/01/27 07:44:42;;;;;;;;;;;2.30;99.90;;;;;;4940968;28;19968;-67
2024/01/27 07:47:08;;;;;;;;;;;2.30;99.90;;;;;;4929852;28;19932;-67
2024/01/27 07:49:34;;;;;;;;;;;2.30;99.90;;;;;;4940804;28;19926;-67
2024/01/27 07:52:00;;;;;;;;;;;2.30;99.90;;;;;;4912223;28;19925;-67
2024/01/27 07:54:26;;;;;;;;;;;2.30;99.90;;;;;;4945286;28;19933;-67
2024/01/27 07:56:52;;;;;;;;;;;2.30;99.90;;;;;;4933113;28;19979;-66
2024/01/27 07:59:18;;;;;;;;;;;2.30;99.90;;;;;;4959172;28;19933;-67
2024/01/27 08:01:44;;;;;;;;;;;2.30;99.90;;;;;;4942094;28;20027;-67
2024/01/27 08:04:10;;;;;;;;;;;2.30;99.90;;;;;;4969942;28;20137;-66
2024/01/27 08:06:46;;;;;;;;;;;2.30;99.90;;;;;;4942847;28;19924;-67
2024/01/27 08:09:12;;;;;;;;;;;2.30;99.90;;;;;;4970151;28;19925;-67
2024/01/27 08:11:37;;;;;;;;;;;2.30;99.90;;;;;;4935175;28;20495;-68
2024/01/27 08:14:03;;;;;;;;;;;2.30;99.90;;;;;;4961851;28;19926;-66
2024/01/27 08:16:29;;;;;;;;;;;2.30;99.90;;;;;;4934259;28;19925;-66
2024/01/27 08:18:55;;;;;;;;;;;2.30;99.90;;;;;;4973405;28;21063;-68
2024/01/27 08:21:21;;;;;;;;;;;2.30;99.90;;;;;;4930480;28;19940;-68
2024/01/27 08:23:47;;;;;;;;;;;2.40;99.90;;;;;;4950429;28;21045;-68
2024/01/27 08:26:13;;;;;;;;;;;2.40;99.90;;;;;;4930061;28;19932;-67
2024/01/27 08:28:39;;;;;;;;;;;2.50;99.90;;;;;;4965288;28;19929;-68
2024/01/27 08:31:05;;;;;;;;;;;2.60;99.90;;;;;;4916652;28;21102;-68
2024/01/27 08:33:31;;;;;;;;;;;2.60;99.90;;;;;;4949452;28;20670;-68
2024/01/27 08:35:57;;;;;;;;;;;2.60;99.90;;;;;;4932444;28;19929;-68
2024/01/27 08:38:23;;;;;;;;;;;2.70;99.90;;;;;;4977558;28;20011;-66
2024/01/27 08:40:49;;;;;;;;;;;2.70;99.90;;;;;;4933006;28;19937;-67
2024/01/27 08:43:16;;;;;;;;;;;2.70;99.90;;;;;;4946582;28;19925;-68
2024/01/27 08:45:41;;;;;;;;;;;2.70;99.90;;;;;;4930289;28;19930;-68
2024/01/27 08:48:07;;;;;;;;;;;2.80;99.90;;;;;;4968661;28;19926;-68
2024/01/27 08:50:34;;;;;;;;;;;2.80;99.90;;;;;;4963696;28;20432;-68
2024/01/27 08:53:00;;;;;;;;;;;2.90;99.90;;;;;;4940362;28;20435;-67
2024/01/27 08:55:26;;;;;;;;;;;2.90;99.90;;;;;;4957959;28;20530;-67
2024/01/27 08:57:51;;;;;;;;;;;3.00;99.90;;;;;;4939017;28;19925;-67
2024/01/27 09:00:17;;;;;;;;;;;3.10;99.90;;;;;;4960493;28;19983;-67
2024/01/27 09:02:43;;;;;;;;;;;3.00;99.90;;;;;;4953311;28;19929;-69
2024/01/27 09:05:09;;;;;;;;;;;3.20;99.90;;;;;;4957104;28;19925;-68
2024/01/27 09:07:35;;;;;;;;;;;3.20;99.90;;;;;;4938240;28;19958;-68
2024/01/27 09:10:02;;;;;;;;;;;3.20;99.90;;;;;;4958690;28;19936;-68
2024/01/27 09:12:28;;;;;;;;;;;3.30;99.90;;;;;;4930262;28;20952;-69
2024/01/27 09:14:54;;;;;;;;;;;3.30;99.90;;;;;;4962793;28;19929;-69
2024/01/27 09:17:20;;;;;;;;;;;3.30;99.90;;;;;;4938802;28;19932;-69
2024/01/27 09:19:46;;;;;;;;;;;3.40;99.90;;;;;;4943222;28;19925;-69
2024/01/27 09:22:12;;;;;;;;;;;3.50;99.90;;;;;;4947886;28;20043;-69
2024/01/27 09:24:38;;;;;;;;;;;3.40;99.90;;;;;;4961322;28;19925;-69
2024/01/27 09:27:05;;;;;;;;;;;3.50;99.90;;;;;;4937056;28;20399;-72
2024/01/27 09:29:31;;;;;;;;;;;3.60;99.90;;;;;;4970176;28;19925;-71
2024/01/27 09:31:56;;;;;;;;;;;3.60;99.90;;;;;;4933983;28;20422;-71
2024/01/27 09:34:22;;;;;;;;;;;3.60;99.90;;;;;;4963950;28;19961;-72
2024/01/27 09:36:48;;;;;;;;;;;3.70;99.90;;;;;;4935739;28;19925;-72
2024/01/27 09:39:14;;;;;;;;;;;3.80;99.90;;;;;;4965408;28;20580;-72
2024/01/27 09:41:40;;;;;;;;;;;3.90;99.90;;;;;;4926135;28;19933;-73
2024/01/27 09:44:06;;;;;;;;;;;3.90;99.90;;;;;;4961831;28;19925;-71
2024/01/27 09:46:32;;;;;;;;;;;4.00;99.90;;;;;;4934013;28;19944;-70
2024/01/27 09:48:58;;;;;;;;;;;4.00;99.90;;;;;;4961937;28;19953;-72
2024/01/27 09:51:25;;;;;;;;;;;4.10;99.90;;;;;;4942215;28;19929;-72
2024/01/27 09:53:51;;;;;;;;;;;4.20;99.90;;;;;;4975884;28;19930;-71
2024/01/27 09:56:21;;;;;;;;;;;4.30;99.90;;;;;;4935698;28;20502;-71
2024/01/27 09:58:49;;;;;;;;;;;4.30;99.90;;;;;;4963800;28;20244;-71
2024/01/27 10:01:18;;;;;;;;;;;4.40;99.90;;;;;;4935953;28;19984;-71
2024/01/27 10:03:44;;;;;;;;;;;4.50;99.90;;;;;;4979068;28;20388;-71
2024/01/27 10:06:10;;;;;;;;;;;4.60;99.90;;;;;;4919396;28;19925;-71
2024/01/27 10:08:36;;;;;;;;;;;4.60;99.90;;;;;;4968695;28;20135;-71
2024/01/27 10:11:07;;;;;;;;;;;4.70;99.90;;;;;;4937280;28;20888;-70
2024/01/27 10:13:33;;;;;;;;;;;4.80;99.90;;;;;;4951557;28;20480;-70
2024/01/27 10:16:02;;;;;;;;;;;4.90;99.90;;;;;;4935554;28;20518;-69
2024/01/27 10:18:29;;;;;;;;;;;4.90;99.90;;;;;;4968213;28;19925;-71
2024/01/27 10:20:55;;;;;;;;;;;5.00;99.90;;;;;;4930055;28;19939;-70
2024/01/27 10:23:21;;;;;;;;;;;5.10;99.90;;;;;;4966961;28;20047;-70
2024/01/27 10:25:47;;;;;;;;;;;5.10;99.90;;;;;;4934560;28;19926;-71
2024/01/27 10:28:13;;;;;;;;;;;5.20;99.90;;;;;;4967367;28;19926;-70
2024/01/27 10:30:39;;;;;;;;;;;5.30;99.90;;;;;;4934941;28;19925;-71
2024/01/27 10:33:07;;;;;;;;;;;5.30;99.90;;;;;;4967630;28;19932;-71
2024/01/27 10:35:33;;;;;;;;;;;5.50;99.90;;;;;;4952052;28;19933;-71
2024/01/27 10:37:59;;;;;;;;;;;5.50;99.90;;;;;;4968500;28;19933;-71
2024/01/27 10:40:26;;;;;;;;;;;5.60;99.90;;;;;;4976890;28;19980;-71
2024/01/27 10:43:00;;;;;;;;;;;5.60;99.90;;;;;;4939269;28;19957;-71
2024/01/27 10:45:27;;;;;;;;;;;5.70;99.90;;;;;;4940688;28;19937;-71
2024/01/27 10:47:54;;;;;;;;;;;5.80;99.90;;;;;;4917968;28;19926;-71
2024/01/27 10:50:22;;;;;;;;;;;5.80;99.90;;;;;;4961444;28;19925;-71
2024/01/27 10:52:48;;;;;;;;;;;6.00;99.90;;;;;;4940670;28;19925;-72
2024/01/27 10:55:15;;;;;;;;;;;6.00;99.90;;;;;;4961241;28;19981;-71
2024/01/27 10:57:42;;;;;;;;;;;6.00;99.90;;;;;;4913186;28;20411;-72
2024/01/27 11:00:09;;;;;;;;;;;6.10;99.90;;;;;;4960078;28;20559;-72
2024/01/27 11:02:35;;;;;;;;;;;6.20;99.90;;;;;;4939635;28;19939;-70
2024/01/27 11:05:07;;;;;;;;;;;6.20;99.90;;;;;;4943788;28;19926;-70
2024/01/27 11:07:34;;;;;;;;;;;6.30;99.90;;;;;;4937342;28;19925;-70
2024/01/27 11:10:00;;;;;;;;;;;6.40;99.90;;;;;;4975739;28;19929;-71
2024/01/27 11:12:26;;;;;;;;;;;6.50;99.90;;;;;;4924347;28;20792;-71
2024/01/27 11:14:52;;;;;;;;;;;6.60;99.90;;;;;;4964690;28;20745;-71
2024/01/27 11:17:19;;;;;;;;;;;6.70;99.90;;;;;;4923490;28;19976;-71
2024/01/27 11:19:45;;;;;;;;;;;6.70;99.90;;;;;;4961358;28;19930;-71
2024/01/27 11:22:39;;;;;;;;;;;6.80;99.90;;;;;;4952307;28;19935;-71
2024/01/27 11:25:11;;;;;;;;;;;6.90;99.90;;;;;;4958308;28;19937;-69
2024/01/27 11:27:37;;;;;;;;;;;7.00;99.90;;;;;;4932102;28;19925;-70
2024/01/27 11:30:04;;;;;;;;;;;7.10;99.90;;;;;;4960444;28;20534;-70
2024/01/27 11:32:30;;;;;;;;;;;7.10;99.90;;;;;;4936323;28;19925;-72
2024/01/27 11:34:57;;;;;;;;;;;7.20;99.90;;;;;;4959280;28;19932;-71
2024/01/27 11:37:24;;;;;;;;;;;7.20;99.90;;;;;;4952925;28;20518;-71
2024/01/27 11:39:51;;;;;;;;;;;7.30;99.90;;;;;;4957623;28;20370;-70
2024/01/27 11:42:17;;;;;;;;;;;7.30;99.90;;;;;;4921335;28;20642;-70
2024/01/27 11:44:44;;;;;;;;;;;7.40;99.90;;;;;;4958071;28;20348;-70
2024/01/27 11:47:14;;;;;;;;;;;7.40;99.90;;;;;;4954111;28;19924;-69
2024/01/27 11:49:41;;;;;;;;;;;7.40;99.90;;;;;;4964759;28;19936;-69
2024/01/27 11:52:07;;;;;;;;;;;7.40;99.90;;;;;;4930978;28;21027;-70
2024/01/27 11:54:33;;;;;;;;;;;7.50;99.90;;;;;;4961887;28;19932;-70
2024/01/27 11:56:59;;;;;;;;;;;7.50;99.90;;;;;;4914251;28;19932;-70
2024/01/27 11:59:25;;;;;;;;;;;7.60;99.90;;;;;;4957755;28;19929;-68
2024/01/27 12:01:51;;;;;;;;;;;7.60;99.90;;;;;;4924208;28;20423;-69
2024/01/27 12:04:17;;;;;;;;;;;7.60;99.90;;;;;;4949567;28;19935;-71
2024/01/27 12:06:43;;;;;;;;;;;7.60;99.90;;;;;;4922135;28;19924;-70
2024/01/27 12:09:11;;;;;;;;;;;7.70;99.90;;;;;;4960289;28;19925;-69
2024/01/27 12:11:39;;;;;;;;;;;7.60;99.90;;;;;;4935981;28;20667;-70
2024/01/27 12:14:05;;;;;;;;;;;7.70;99.90;;;;;;4961716;28;20996;-70
2024/01/27 12:16:31;;;;;;;;;;;7.80;99.90;;;;;;4945652;28;20316;-70
2024/01/27 12:18:57;;;;;;;;;;;7.80;99.90;;;;;;4972870;28;19926;-71
2024/01/27 12:21:23;;;;;;;;;;;7.90;99.90;;;;;;4939064;28;20525;-70
2024/01/27 12:23:50;;;;;;;;;;;7.90;99.90;;;;;;4945516;28;19934;-70
2024/01/27 12:26:16;;;;;;;;;;;7.90;99.90;;;;;;4930805;28;20530;-70
2024/01/27 12:28:45;;;;;;;;;;;8.30;99.90;;;;;;4957753;28;19937;-69
2024/01/27 12:31:11;;;;;;;;;;;9.80;99.90;;;;;;4933895;28;19925;-70
2024/01/27 12:33:36;;;;;;;;;;;11.00;99.90;;;;;;4970359;28;20203;-70
2024/01/27 12:36:02;;;;;;;;;;;11.80;99.90;;;;;;4948135;28;19924;-69
2024/01/27 12:38:28;;;;;;;;;;;12.50;99.90;;;;;;4959400;28;19943;-69
2024/01/27 12:40:54;;;;;;;;;;;12.90;99.90;;;;;;4934214;28;21425;-69
2024/01/27 12:43:20;;;;;;;;;;;13.30;99.90;;;;;;4981491;28;19932;-70
2024/01/27 12:45:46;;;;;;;;;;;13.40;99.90;;;;;;4931842;28;19940;-69
2024/01/27 12:48:12;;;;;;;;;;;13.50;99.90;;;;;;4944611;28;19921;-70
2024/01/27 12:50:38;;;;;;;;;;;13.60;99.90;;;;;;4928798;28;19925;-69
2024/01/27 12:53:04;;;;;;;;;;;13.60;99.90;;;;;;4980376;28;20539;-70
2024/01/27 12:55:30;;;;;;;;;;;14.10;99.90;;;;;;4958350;28;19925;-70
2024/01/27 12:57:57;;;;;;;;;;;14.00;99.90;;;;;;4931232;28;20403;-69
2024/01/27 13:00:23;;;;;;;;;;;14.00;99.90;;;;;;4970711;28;20428;-69
2024/01/27 13:02:49;;;;;;;;;;;14.00;99.90;;;;;;4918718;28;19930;-68
2024/01/27 13:05:15;;;;;;;;;;;14.10;99.90;;;;;;4956029;28;20495;-68
2024/01/27 13:07:42;;;;;;;;;;;13.90;99.90;;;;;;4936404;28;19933;-68
2024/01/27 13:10:08;;;;;;;;;;;14.00;99.90;;;;;;4975115;28;19929;-67
2024/01/27 13:12:35;;;;;;;;;;;14.10;99.90;;;;;;4949328;28;20689;-68
2024/01/27 13:15:00;;;;;;;;;;;14.00;99.90;;;;;;4959671;28;19926;-69
2024/01/27 13:17:26;;;;;;;;;;;14.10;99.90;;;;;;4937037;28;20843;-69
2024/01/27 13:19:52;;;;;;;;;;;14.30;99.90;;;;;;4960782;28;19929;-69
2024/01/27 13:22:24;;;;;;;;;;;14.60;99.90;;;;;;4927711;28;19937;-68
2024/01/27 13:24:50;;;;;;;;;;;14.60;99.90;;;;;;4956710;28;20623;-68
2024/01/27 13:27:16;;;;;;;;;;;14.90;99.90;;;;;;4933953;28;20407;-67
2024/01/27 13:29:41;;;;;;;;;;;15.00;99.90;;;;;;4960363;28;19932;-68
2024/01/27 13:32:07;;;;;;;;;;;15.10;99.90;;;;;;4947505;28;19924;-69
2024/01/27 13:34:33;;;;;;;;;;;15.00;99.90;;;;;;4965538;28;19925;-68
2024/01/27 13:37:02;;;;;;;;;;;15.00;99.90;;;;;;4948427;28;19971;-69
2024/01/27 13:39:28;;;;;;;;;;;15.00;99.90;;;;;;4965782;28;20215;-68
2024/01/27 13:41:54;;;;;;;;;;;15.10;99.90;;;;;;4931832;28;20661;-68
2024/01/27 13:44:20;;;;;;;;;;;15.20;99.90;;;;;;4957845;28;21089;-68
2024/01/27 13:46:46;;;;;;;;;;;15.00;99.90;;;;;;4928426;28;19937;-70
2024/01/27 13:49:12;;;;;;;;;;;14.70;99.90;;;;;;4955676;28;20437;-67
2024/01/27 13:51:38;;;;;;;;;;;15.20;99.90;;;;;;4931701;28;20432;-66
2024/01/27 13:54:04;;;;;;;;;;;15.20;99.90;;;;;;4968377;28;19932;-68
2024/01/27 13:56:32;;;;;;;;;;;15.10;99.30;;;;;;4936433;28;20693;-68
2024/01/27 13:58:58;;;;;;;;;;;14.80;99.90;;;;;;4965637;28;19925;-68
2024/01/27 14:01:24;;;;;;;;;;;14.50;99.90;;;;;;4933229;28;20468;-67
2024/01/27 14:03:50;;;;;;;;;;;14.20;99.90;;;;;;4962286;28;19925;-67
2024/01/27 14:06:17;;;;;;;;;;;14.30;99.90;;;;;;4941311;28;19924;-68
2024/01/27 14:08:43;;;;;;;;;;;14.20;99.90;;;;;;4968053;28;19976;-67
2024/01/27 14:11:09;;;;;;;;;;;14.00;99.90;;;;;;4934356;28;19932;-67
2024/01/27 14:13:35;;;;;;;;;;;13.70;99.90;;;;;;4960055;28;19929;-67
2024/01/27 14:16:01;;;;;;;;;;;13.50;99.90;;;;;;4931132;28;19980;-68
2024/01/27 14:18:28;;;;;;;;;;;13.50;99.90;;;;;;4952706;28;19932;-69
2024/01/27 14:20:54;;;;;;;;;;;13.60;99.90;;;;;;4932943;28;19942;-68
2024/01/27 14:23:20;;;;;;;;;;;13.70;99.90;;;;;;4964253;28;19929;-67